Berea, Ohio
Current Conditions -  °F | °C
As of 4:51 AM on Saturday 29 Nov 2014 (Local Time) from KCLE Reporting Station
Overcast Overcast  
Wind Chill: 22°   Ceiling: 9500
Heat Index: 31°   Visibility: 10mi
Dew Point: 21°   Wind: 12mph
Humidity: 67%   Direction: 160°SSE
Pressure: 30.08"   Gusts: NA
Location:  41.37°N, 81.85°W
Report Text: KCLE 290951Z 16010KT 10SM SCT050 SCT075 OVC095 M01/M06 A3008 RMK AO2 SLP195 T10061061 $
Loading
Personal Weather Stations






























Interactive Weather Map New forecast layout! Learn more

10-Day Weather Forecast

Advertisements
Track Severe Weather on mobile